^^
Saratoga-Weather Station Historical Data
Daily Summary for April 3, 2021 Units:  Both    English   Metric
Daily Weekly Monthly Yearly Custom
  High: Low: Average:
Temperature: 54.7 °F /  12.6 °C 46.6 °F /  8.1 °C 51.3 °F /  10.7 °C
Dew Point: 51.6 °F /  10.9 °C 42.3 °F /  5.7 °C 48.4 °F /  9.1 °C
Humidity: 97% 78% 90%
Wind Speed: 17mph /  27.4km/h - 4.1mph /  6.6km/h
Wind Gust: 28mph /  45.1km/h - -
Wind- - WSW
Pressure: 29.8 in /  1008.1 hPa 29.4 in /  996.3 hPa -
Precipitation: 0.86 in /  21.8 mm    
Historical Graphs
 
 
Tabular Data for April 3, 2021
Time Temperature Dew Point Pressure Wind Wind Speed Wind Gust Humidity Rainfall Rate (Hourly) solar
00:03 52 °F /  11.1 °C 49.6 °F /  9.8 °C 29.6in /  1003.0hPa SSW 0.9mph /  1.4km/h 4mph /  6.4km/h 92% 0in /  0.0mm 0 W/m2
00:08 52 °F /  11.1 °C 49.6 °F /  9.8 °C 29.6in /  1003.0hPa West 0.9mph /  1.4km/h 3mph /  4.8km/h 92% 0in /  0.0mm 0 W/m2
00:13 51.8 °F /  11 °C 49.8 °F /  9.9 °C 29.6in /  1003.0hPa NNW 2.9mph /  4.7km/h 7mph /  11.3km/h 93% 0in /  0.0mm 0 W/m2
00:18 52 °F /  11.1 °C 50 °F /  10 °C 29.6in /  1003.0hPa ESE 0.9mph /  1.4km/h 2mph /  3.2km/h 93% 0in /  0.0mm 0 W/m2
00:23 51.8 °F /  11 °C 49.8 °F /  9.9 °C 29.6in /  1003.0hPa Calm   6mph /  9.7km/h 93% 0in /  0.0mm 0 W/m2
00:28 51.8 °F /  11 °C 49.8 °F /  9.9 °C 29.6in /  1003.0hPa NNE 0.9mph /  1.4km/h 2mph /  3.2km/h 93% 0in /  0.0mm 0 W/m2
00:33 51.8 °F /  11 °C 49.8 °F /  9.9 °C 29.6in /  1003.0hPa East 2.9mph /  4.7km/h 3mph /  4.8km/h 93% 0in /  0.0mm 0 W/m2
00:38 51.8 °F /  11 °C 49.8 °F /  9.9 °C 29.6in /  1003.0hPa WNW 2.9mph /  4.7km/h 3mph /  4.8km/h 93% 0in /  0.0mm 0 W/m2
00:43 52 °F /  11.1 °C 50 °F /  10 °C 29.6in /  1003.0hPa West 0.9mph /  1.4km/h 4mph /  6.4km/h 93% 0.01in /  0.2mm 0 W/m2
00:48 52 °F /  11.1 °C 50 °F /  10 °C 29.6in /  1003.0hPa WNW 2.9mph /  4.7km/h 5mph /  8km/h 93% 0.01in /  0.2mm 0 W/m2
00:53 52 °F /  11.1 °C 50.4 °F /  10.2 °C 29.6in /  1002.7hPa Calm   2mph /  3.2km/h 94% 0.01in /  0.2mm 0 W/m2
00:58 51.8 °F /  11 °C 50.2 °F /  10.1 °C 29.6in /  1002.7hPa WSW 4mph /  6.4km/h 7mph /  11.3km/h 94% 0.01in /  0.2mm 0 W/m2
01:03 51.8 °F /  11 °C 50.2 °F /  10.1 °C 29.6in /  1003.0hPa WSW 4mph /  6.4km/h 12mph /  19.3km/h 94% 0.01in /  0.2mm 0 W/m2
01:08 52 °F /  11.1 °C 50.4 °F /  10.2 °C 29.6in /  1003.0hPa WSW 2.9mph /  4.7km/h 12mph /  19.3km/h 94% 0.01in /  0.2mm 0 W/m2
01:13 52 °F /  11.1 °C 50.4 °F /  10.2 °C 29.6in /  1003.0hPa NW 6.9mph /  11.1km/h 8mph /  12.9km/h 94% 0.01in /  0.2mm 0 W/m2
01:18 52 °F /  11.1 °C 50.4 °F /  10.2 °C 29.6in /  1002.7hPa ENE 0.9mph /  1.4km/h 11mph /  17.7km/h 94% 0.01in /  0.2mm 0 W/m2
01:23 52.2 °F /  11.2 °C 50.5 °F /  10.3 °C 29.6in /  1003.0hPa WNW 0.9mph /  1.4km/h 4mph /  6.4km/h 94% 0.01in /  0.2mm 0 W/m2
01:28 52.2 °F /  11.2 °C 50.5 °F /  10.3 °C 29.6in /  1002.7hPa North 0.9mph /  1.4km/h 3mph /  4.8km/h 94% 0.01in /  0.2mm 0 W/m2
01:33 52.2 °F /  11.2 °C 50.2 °F /  10.1 °C 29.6in /  1002.7hPa Calm   4mph /  6.4km/h 93% 0.01in /  0.2mm 0 W/m2
01:38 52.2 °F /  11.2 °C 50.2 °F /  10.1 °C 29.6in /  1002.7hPa ESE 0.9mph /  1.4km/h 8mph /  12.9km/h 93% 0in /  0.0mm 0 W/m2
01:43 52.2 °F /  11.2 °C 50.2 °F /  10.1 °C 29.6in /  1002.7hPa Calm   3mph /  4.8km/h 93% 0in /  0.0mm 0 W/m2
01:48 52.3 °F /  11.3 °C 50.4 °F /  10.2 °C 29.6in /  1002.7hPa NNW 2mph /  3.2km/h 4mph /  6.4km/h 93% 0in /  0.0mm 0 W/m2
01:53 52.3 °F /  11.3 °C 50.4 °F /  10.2 °C 29.6in /  1002.7hPa West 2mph /  3.2km/h 7mph /  11.3km/h 93% 0in /  0.0mm 0 W/m2
01:58 52.3 °F /  11.3 °C 50.4 °F /  10.2 °C 29.6in /  1002.7hPa WNW 2mph /  3.2km/h 4mph /  6.4km/h 93% 0in /  0.0mm 0 W/m2
02:03 52.5 °F /  11.4 °C 50.2 °F /  10.1 °C 29.6in /  1003.0hPa WNW 0.9mph /  1.4km/h 4mph /  6.4km/h 92% 0in /  0.0mm 0 W/m2
02:08 52.3 °F /  11.3 °C 50 °F /  10 °C 29.6in /  1002.7hPa West 2.9mph /  4.7km/h 4mph /  6.4km/h 92% 0in /  0.0mm 0 W/m2
02:13 52.5 °F /  11.4 °C 50.2 °F /  10.1 °C 29.6in /  1002.7hPa West 2mph /  3.2km/h 5mph /  8km/h 92% 0in /  0.0mm 0 W/m2
02:18 52.5 °F /  11.4 °C 50.2 °F /  10.1 °C 29.6in /  1002.7hPa NW 2.9mph /  4.7km/h 4mph /  6.4km/h 92% 0in /  0.0mm 0 W/m2
02:23 52.5 °F /  11.4 °C 50.2 °F /  10.1 °C 29.6in /  1002.4hPa North 2.9mph /  4.7km/h 9mph /  14.5km/h 92% 0in /  0.0mm 0 W/m2
02:28 52.3 °F /  11.3 °C 50 °F /  10 °C 29.6in /  1002.0hPa West 2.9mph /  4.7km/h 7mph /  11.3km/h 92% 0in /  0.0mm 0 W/m2
02:33 52.3 °F /  11.3 °C 50 °F /  10 °C 29.6in /  1002.4hPa WNW 0.9mph /  1.4km/h 9mph /  14.5km/h 92% 0in /  0.0mm 0 W/m2
02:38 52.2 °F /  11.2 °C 49.8 °F /  9.9 °C 29.6in /  1002.0hPa NW 2mph /  3.2km/h 4mph /  6.4km/h 92% 0in /  0.0mm 0 W/m2
02:43 52.2 °F /  11.2 °C 49.8 °F /  9.9 °C 29.6in /  1002.4hPa WNW 0.9mph /  1.4km/h 6mph /  9.7km/h 92% 0in /  0.0mm 0 W/m2
02:48 52.2 °F /  11.2 °C 49.8 °F /  9.9 °C 29.6in /  1002.4hPa NW 4mph /  6.4km/h 6mph /  9.7km/h 92% 0in /  0.0mm 0 W/m2
02:53 52.2 °F /  11.2 °C 49.8 °F /  9.9 °C 29.6in /  1002.4hPa West 2mph /  3.2km/h 8mph /  12.9km/h 92% 0in /  0.0mm 0 W/m2
02:58 52.2 °F /  11.2 °C 49.8 °F /  9.9 °C 29.6in /  1002.7hPa South 4mph /  6.4km/h 7mph /  11.3km/h 92% 0in /  0.0mm 0 W/m2
03:03 52.2 °F /  11.2 °C 49.8 °F /  9.9 °C 29.6in /  1002.4hPa North 4mph /  6.4km/h 10mph /  16.1km/h 92% 0in /  0.0mm 0 W/m2
03:08 52.2 °F /  11.2 °C 49.8 °F /  9.9 °C 29.6in /  1002.4hPa WNW 2mph /  3.2km/h 4mph /  6.4km/h 92% 0in /  0.0mm 0 W/m2
03:13 52.2 °F /  11.2 °C 49.8 °F /  9.9 °C 29.6in /  1002.4hPa WSW 2mph /  3.2km/h 3mph /  4.8km/h 92% 0in /  0.0mm 0 W/m2
03:18 52.2 °F /  11.2 °C 49.8 °F /  9.9 °C 29.6in /  1002.4hPa NNW 2.9mph /  4.7km/h 8mph /  12.9km/h 92% 0in /  0.0mm 0 W/m2
03:23 52.2 °F /  11.2 °C 49.8 °F /  9.9 °C 29.6in /  1002.0hPa NNW 2.9mph /  4.7km/h 4mph /  6.4km/h 92% 0in /  0.0mm 0 W/m2
03:28 52.2 °F /  11.2 °C 49.6 °F /  9.8 °C 29.6in /  1002.0hPa North 0.9mph /  1.4km/h 8mph /  12.9km/h 91% 0in /  0.0mm 0 W/m2
03:33 52.2 °F /  11.2 °C 49.6 °F /  9.8 °C 29.6in /  1002.0hPa WNW 0.9mph /  1.4km/h 3mph /  4.8km/h 91% 0in /  0.0mm 0 W/m2
03:38 52.2 °F /  11.2 °C 49.6 °F /  9.8 °C 29.6in /  1002.4hPa NNW 6mph /  9.7km/h 9mph /  14.5km/h 91% 0in /  0.0mm 0 W/m2
03:43 52.2 °F /  11.2 °C 49.6 °F /  9.8 °C 29.6in /  1002.0hPa Calm   2mph /  3.2km/h 91% 0in /  0.0mm 0 W/m2
03:48 52.2 °F /  11.2 °C 49.6 °F /  9.8 °C 29.6in /  1002.0hPa WNW 2mph /  3.2km/h 6mph /  9.7km/h 91% 0in /  0.0mm 0 W/m2
03:54 52.2 °F /  11.2 °C 49.6 °F /  9.8 °C 29.6in /  1002.0hPa NNW 4mph /  6.4km/h 8mph /  12.9km/h 91% 0in /  0.0mm 0 W/m2
03:59 52.2 °F /  11.2 °C 49.6 °F /  9.8 °C 29.6in /  1002.0hPa NW 4mph /  6.4km/h 4mph /  6.4km/h 91% 0in /  0.0mm 0 W/m2
04:04 52.2 °F /  11.2 °C 49.6 °F /  9.8 °C 29.6in /  1002.0hPa WNW 6mph /  9.7km/h 9mph /  14.5km/h 91% 0in /  0.0mm 0 W/m2
04:09 52.2 °F /  11.2 °C 49.3 °F /  9.6 °C 29.6in /  1002.0hPa NW 4mph /  6.4km/h 6mph /  9.7km/h 90% 0in /  0.0mm 0 W/m2
04:14 52.2 °F /  11.2 °C 49.3 °F /  9.6 °C 29.6in /  1002.0hPa West 0.9mph /  1.4km/h 10mph /  16.1km/h 90% 0in /  0.0mm 0 W/m2
04:19 52.2 °F /  11.2 °C 49.3 °F /  9.6 °C 29.6in /  1002.0hPa NNW 2.9mph /  4.7km/h 6mph /  9.7km/h 90% 0in /  0.0mm 0 W/m2
04:24 52.2 °F /  11.2 °C 49.3 °F /  9.6 °C 29.6in /  1002.0hPa NE 2.9mph /  4.7km/h 9mph /  14.5km/h 90% 0in /  0.0mm 0 W/m2
04:29 52.2 °F /  11.2 °C 49.3 °F /  9.6 °C 29.6in /  1002.0hPa NW 4mph /  6.4km/h 8mph /  12.9km/h 90% 0in /  0.0mm 0 W/m2
04:34 52 °F /  11.1 °C 48.9 °F /  9.4 °C 29.6in /  1001.7hPa SSW 2mph /  3.2km/h 10mph /  16.1km/h 89% 0in /  0.0mm 0 W/m2
04:39 52 °F /  11.1 °C 48.9 °F /  9.4 °C 29.6in /  1001.7hPa NNW 2mph /  3.2km/h 2mph /  3.2km/h 89% 0in /  0.0mm 0 W/m2
04:44 52 °F /  11.1 °C 48.9 °F /  9.4 °C 29.6in /  1001.7hPa NW 0.9mph /  1.4km/h 6mph /  9.7km/h 89% 0in /  0.0mm 0 W/m2
04:49 52 °F /  11.1 °C 48.9 °F /  9.4 °C 29.6in /  1001.4hPa Calm   3mph /  4.8km/h 89% 0in /  0.0mm 0 W/m2
04:54 52 °F /  11.1 °C 48.9 °F /  9.4 °C 29.6in /  1001.4hPa Calm   3mph /  4.8km/h 89% 0in /  0.0mm 0 W/m2
04:59 51.8 °F /  11 °C 48.7 °F /  9.3 °C 29.6in /  1001.4hPa West 0.9mph /  1.4km/h 3mph /  4.8km/h 89% 0in /  0.0mm 0 W/m2
05:04 51.6 °F /  10.9 °C 48.6 °F /  9.2 °C 29.6in /  1001.4hPa West 0.9mph /  1.4km/h 1mph /  1.6km/h 89% 0in /  0.0mm 0 W/m2
05:09 51.6 °F /  10.9 °C 48.7 °F /  9.3 °C 29.6in /  1001.4hPa North 0.9mph /  1.4km/h 3mph /  4.8km/h 90% 0in /  0.0mm 0 W/m2
05:14 51.6 °F /  10.9 °C 48.7 °F /  9.3 °C 29.6in /  1001.4hPa West 2mph /  3.2km/h 5mph /  8km/h 90% 0in /  0.0mm 0 W/m2
05:19 51.6 °F /  10.9 °C 48.7 °F /  9.3 °C 29.6in /  1001.4hPa Calm   3mph /  4.8km/h 90% 0in /  0.0mm 0 W/m2
05:24 51.6 °F /  10.9 °C 48.7 °F /  9.3 °C 29.6in /  1001.4hPa Calm   5mph /  8km/h 90% 0in /  0.0mm 0 W/m2
05:29 51.4 °F /  10.8 °C 48.6 °F /  9.2 °C 29.6in /  1001.4hPa Calm   2mph /  3.2km/h 90% 0in /  0.0mm 0 W/m2
05:34 51.4 °F /  10.8 °C 48.6 °F /  9.2 °C 29.6in /  1001.4hPa Calm   2mph /  3.2km/h 90% 0in /  0.0mm 0 W/m2
05:39 51.3 °F /  10.7 °C 48.7 °F /  9.3 °C 29.6in /  1001.4hPa ENE 2mph /  3.2km/h 5mph /  8km/h 91% 0in /  0.0mm 0 W/m2
05:44 51.3 °F /  10.7 °C 48.7 °F /  9.3 °C 29.6in /  1001.0hPa NW 2.9mph /  4.7km/h 3mph /  4.8km/h 91% 0.01in /  0.2mm 0 W/m2
05:49 51.3 °F /  10.7 °C 48.7 °F /  9.3 °C 29.6in /  1001.0hPa Calm   5mph /  8km/h 91% 0.02in /  0.5mm 0 W/m2
05:54 51.3 °F /  10.7 °C 49.1 °F /  9.5 °C 29.6in /  1000.7hPa East 0.9mph /  1.4km/h 2mph /  3.2km/h 92% 0.02in /  0.5mm 0 W/m2
05:59 51.1 °F /  10.6 °C 48.9 °F /  9.4 °C 29.6in /  1000.7hPa North 0.9mph /  1.4km/h 2mph /  3.2km/h 92% 0.03in /  0.8mm 0 W/m2
06:04 51.1 °F /  10.6 °C 48.9 °F /  9.4 °C 29.5in /  1000.3hPa NE 2mph /  3.2km/h 2mph /  3.2km/h 92% 0.04in /  1.0mm 0 W/m2
06:09 51.1 °F /  10.6 °C 49.1 °F /  9.5 °C 29.5in /  1000.3hPa Calm   2mph /  3.2km/h 93% 0.05in /  1.3mm 0 W/m2
06:14 51.1 °F /  10.6 °C 49.1 °F /  9.5 °C 29.5in /  1000.3hPa NE 2mph /  3.2km/h 2mph /  3.2km/h 93% 0.06in /  1.5mm 0 W/m2
06:19 50.7 °F /  10.4 °C 48.7 °F /  9.3 °C 29.5in /  1000.3hPa Calm     93% 0.07in /  1.8mm 0 W/m2
06:24 50.7 °F /  10.4 °C 49.1 °F /  9.5 °C 29.5in /  1000.0hPa Calm     94% 0.07in /  1.8mm 0 W/m2
06:29 50.5 °F /  10.3 °C 48.9 °F /  9.4 °C 29.5in /  1000.3hPa ENE 0.9mph /  1.4km/h 1mph /  1.6km/h 94% 0.08in /  2.0mm 0 W/m2
06:34 50.5 °F /  10.3 °C 48.9 °F /  9.4 °C 29.5in /  1000.0hPa Calm   2mph /  3.2km/h 94% 0.09in /  2.3mm 0 W/m2
06:39 50.5 °F /  10.3 °C 49.1 °F /  9.5 °C 29.5in /  1000.0hPa East 2mph /  3.2km/h 3mph /  4.8km/h 95% 0.1in /  2.5mm 0 W/m2
06:44 50.5 °F /  10.3 °C 49.1 °F /  9.5 °C 29.5in /  999.7hPa WNW 0.9mph /  1.4km/h 4mph /  6.4km/h 95% 0.1in /  2.5mm 0 W/m2
06:49 50.5 °F /  10.3 °C 49.1 °F /  9.5 °C 29.5in /  999.7hPa Calm   3mph /  4.8km/h 95% 0.12in /  3.0mm 0 W/m2
06:54 50.4 °F /  10.2 °C 48.9 °F /  9.4 °C 29.5in /  999.7hPa NNW 2mph /  3.2km/h 5mph /  8km/h 95% 0.13in /  3.3mm 0 W/m2
06:59 50.5 °F /  10.3 °C 49.1 °F /  9.5 °C 29.5in /  999.7hPa NNW 0.9mph /  1.4km/h 3mph /  4.8km/h 95% 0.12in /  3.0mm 0 W/m2
07:04 50.5 °F /  10.3 °C 49.1 °F /  9.5 °C 29.5in /  999.7hPa NNE 2mph /  3.2km/h 8mph /  12.9km/h 95% 0.12in /  3.0mm 0 W/m2
07:09 50.7 °F /  10.4 °C 49.3 °F /  9.6 °C 29.5in /  999.7hPa NNW 2mph /  3.2km/h 4mph /  6.4km/h 95% 0.13in /  3.3mm 0 W/m2
07:14 50.7 °F /  10.4 °C 49.3 °F /  9.6 °C 29.5in /  999.7hPa ENE 4mph /  6.4km/h 8mph /  12.9km/h 95% 0.13in /  3.3mm 0 W/m2
07:19 50.7 °F /  10.4 °C 49.3 °F /  9.6 °C 29.5in /  999.7hPa NNE 2mph /  3.2km/h 2mph /  3.2km/h 95% 0.13in /  3.3mm 0 W/m2
07:24 50.9 °F /  10.5 °C 49.5 °F /  9.7 °C 29.5in /  999.7hPa Calm   6mph /  9.7km/h 95% 0.14in /  3.6mm 0 W/m2
07:29 50.7 °F /  10.4 °C 49.3 °F /  9.6 °C 29.5in /  999.7hPa North 0.9mph /  1.4km/h 2mph /  3.2km/h 95% 0.16in /  4.1mm 0 W/m2
07:34 50.7 °F /  10.4 °C 49.3 °F /  9.6 °C 29.5in /  999.7hPa Calm   3mph /  4.8km/h 95% 0.17in /  4.3mm 0 W/m2
07:39 50.7 °F /  10.4 °C 49.3 °F /  9.6 °C 29.5in /  999.7hPa NW 2mph /  3.2km/h 4mph /  6.4km/h 95% 0.2in /  5.1mm 0 W/m2
07:44 50.7 °F /  10.4 °C 49.3 °F /  9.6 °C 29.5in /  999.3hPa North 0.9mph /  1.4km/h 2mph /  3.2km/h 95% 0.22in /  5.6mm 0 W/m2
07:49 50.7 °F /  10.4 °C 49.3 °F /  9.6 °C 29.5in /  999.0hPa ENE 2.9mph /  4.7km/h 5mph /  8km/h 95% 0.22in /  5.6mm 0 W/m2
07:54 50.5 °F /  10.3 °C 49.1 °F /  9.5 °C 29.5in /  999.0hPa East 2.9mph /  4.7km/h 4mph /  6.4km/h 95% 0.23in /  5.8mm 0 W/m2
07:59 50.5 °F /  10.3 °C 49.1 °F /  9.5 °C 29.5in /  998.6hPa ENE 6mph /  9.7km/h 6mph /  9.7km/h 95% 0.23in /  5.8mm 0 W/m2
08:04 50.4 °F /  10.2 °C 48.9 °F /  9.4 °C 29.5in /  998.6hPa East 2mph /  3.2km/h 4mph /  6.4km/h 95% 0.24in /  6.1mm 0 W/m2
08:09 50.4 °F /  10.2 °C 48.9 °F /  9.4 °C 29.5in /  999.0hPa ENE 2mph /  3.2km/h 5mph /  8km/h 95% 0.23in /  5.8mm 0 W/m2
08:14 50.2 °F /  10.1 °C 48.7 °F /  9.3 °C 29.5in /  998.6hPa East 2.9mph /  4.7km/h 4mph /  6.4km/h 95% 0.23in /  5.8mm 0 W/m2
08:19 50.2 °F /  10.1 °C 48.7 °F /  9.3 °C 29.5in /  998.6hPa ESE 2.9mph /  4.7km/h 3mph /  4.8km/h 95% 0.23in /  5.8mm 0 W/m2
08:24 50 °F /  10 °C 48.6 °F /  9.2 °C 29.5in /  998.6hPa ESE 2mph /  3.2km/h 6mph /  9.7km/h 95% 0.23in /  5.8mm 0 W/m2
08:29 49.8 °F /  9.9 °C 48.4 °F /  9.1 °C 29.5in /  998.3hPa ENE 2mph /  3.2km/h 5mph /  8km/h 95% 0.21in /  5.3mm 0 W/m2
08:34 49.6 °F /  9.8 °C 48.2 °F /  9 °C 29.5in /  998.3hPa East 2.9mph /  4.7km/h 5mph /  8km/h 95% 0.2in /  5.1mm 0 W/m2
08:39 49.6 °F /  9.8 °C 48.6 °F /  9.2 °C 29.5in /  998.3hPa ENE 2mph /  3.2km/h 4mph /  6.4km/h 96% 0.15in /  3.8mm 0 W/m2
08:44 49.6 °F /  9.8 °C 48.6 °F /  9.2 °C 29.5in /  998.3hPa SE 2mph /  3.2km/h 2mph /  3.2km/h 96% 0.13in /  3.3mm 0 W/m2
08:49 49.6 °F /  9.8 °C 48.6 °F /  9.2 °C 29.5in /  998.3hPa East 4.9mph /  7.9km/h 7mph /  11.3km/h 96% 0.11in /  2.8mm 0 W/m2
08:54 49.6 °F /  9.8 °C 48.6 °F /  9.2 °C 29.5in /  998.3hPa East 2mph /  3.2km/h 8mph /  12.9km/h 96% 0.09in /  2.3mm 5 W/m2
08:59 49.6 °F /  9.8 °C 48.6 °F /  9.2 °C 29.5in /  998.3hPa NE 0.9mph /  1.4km/h 6mph /  9.7km/h 96% 0.09in /  2.3mm 5 W/m2
09:04 49.6 °F /  9.8 °C 48.6 °F /  9.2 °C 29.5in /  998.0hPa ENE 4.9mph /  7.9km/h 9mph /  14.5km/h 96% 0.08in /  2.0mm 9 W/m2
09:09 49.6 °F /  9.8 °C 48.6 °F /  9.2 °C 29.5in /  998.0hPa ESE 2.9mph /  4.7km/h 3mph /  4.8km/h 96% 0.07in /  1.8mm 7 W/m2
09:14 49.8 °F /  9.9 °C 48.7 °F /  9.3 °C 29.5in /  998.0hPa East 2.9mph /  4.7km/h 5mph /  8km/h 96% 0.06in /  1.5mm 5 W/m2
09:19 50.4 °F /  10.2 °C 49.5 °F /  9.7 °C 29.5in /  998.0hPa NNW 0.9mph /  1.4km/h 3mph /  4.8km/h 97% 0.05in /  1.3mm 9 W/m2
09:24 50.7 °F /  10.4 °C 49.8 °F /  9.9 °C 29.5in /  998.0hPa NE 2mph /  3.2km/h 10mph /  16.1km/h 97% 0.04in /  1.0mm 12 W/m2
09:29 51.1 °F /  10.6 °C 50.2 °F /  10.1 °C 29.5in /  998.0hPa NNW 2mph /  3.2km/h 6mph /  9.7km/h 97% 0.03in /  0.8mm 12 W/m2
09:34 51.3 °F /  10.7 °C 50.4 °F /  10.2 °C 29.5in /  997.6hPa NNW 2.9mph /  4.7km/h 5mph /  8km/h 97% 0.02in /  0.5mm 14 W/m2
09:39 51.4 °F /  10.8 °C 50.4 °F /  10.2 °C 29.5in /  998.0hPa West 0.9mph /  1.4km/h 6mph /  9.7km/h 96% 0.02in /  0.5mm 25 W/m2
09:44 51.6 °F /  10.9 °C 50.5 °F /  10.3 °C 29.5in /  997.6hPa WNW 0.9mph /  1.4km/h 8mph /  12.9km/h 96% 0.02in /  0.5mm 25 W/m2
09:49 52 °F /  11.1 °C 50.9 °F /  10.5 °C 29.5in /  997.6hPa SSW 2.9mph /  4.7km/h 5mph /  8km/h 96% 0.02in /  0.5mm 37 W/m2
09:54 52.2 °F /  11.2 °C 51.1 °F /  10.6 °C 29.5in /  997.3hPa West 0.9mph /  1.4km/h 5mph /  8km/h 96% 0.02in /  0.5mm 44 W/m2
09:59 52.2 °F /  11.2 °C 51.1 °F /  10.6 °C 29.5in /  997.3hPa Calm   4mph /  6.4km/h 96% 0.02in /  0.5mm 46 W/m2
10:04 52.3 °F /  11.3 °C 51.3 °F /  10.7 °C 29.5in /  997.3hPa WNW 2mph /  3.2km/h 8mph /  12.9km/h 96% 0.02in /  0.5mm 33 W/m2
10:09 52.3 °F /  11.3 °C 50.9 °F /  10.5 °C 29.5in /  997.3hPa WNW 4mph /  6.4km/h 6mph /  9.7km/h 95% 0.02in /  0.5mm 33 W/m2
10:14 52.5 °F /  11.4 °C 51.1 °F /  10.6 °C 29.5in /  997.3hPa East 2mph /  3.2km/h 10mph /  16.1km/h 95% 0.02in /  0.5mm 19 W/m2
10:19 52.5 °F /  11.4 °C 51.1 °F /  10.6 °C 29.5in /  997.3hPa ENE 2mph /  3.2km/h 5mph /  8km/h 95% 0.02in /  0.5mm 16 W/m2
10:24 52.5 °F /  11.4 °C 51.1 °F /  10.6 °C 29.5in /  997.3hPa NNE 2mph /  3.2km/h 10mph /  16.1km/h 95% 0.02in /  0.5mm 14 W/m2
10:29 52.5 °F /  11.4 °C 51.1 °F /  10.6 °C 29.4in /  997.0hPa South 0.9mph /  1.4km/h 5mph /  8km/h 95% 0.04in /  1.0mm 28 W/m2
10:34 52.7 °F /  11.5 °C 51.3 °F /  10.7 °C 29.5in /  997.3hPa WNW 8.9mph /  14.3km/h 9mph /  14.5km/h 95% 0.04in /  1.0mm 25 W/m2
10:39 52.7 °F /  11.5 °C 51.3 °F /  10.7 °C 29.5in /  997.3hPa ENE 0.9mph /  1.4km/h 5mph /  8km/h 95% 0.05in /  1.3mm 33 W/m2
10:44 52.9 °F /  11.6 °C 51.4 °F /  10.8 °C 29.5in /  997.3hPa ESE 9mph /  14.5km/h 9mph /  14.5km/h 95% 0.04in /  1.0mm 21 W/m2
10:49 52.9 °F /  11.6 °C 51.4 °F /  10.8 °C 29.5in /  997.3hPa Calm   2mph /  3.2km/h 95% 0.06in /  1.5mm 16 W/m2
10:55 52.9 °F /  11.6 °C 51.4 °F /  10.8 °C 29.5in /  997.3hPa NNW 2.9mph /  4.7km/h 6mph /  9.7km/h 95% 0.07in /  1.8mm 18 W/m2
11:00 52.9 °F /  11.6 °C 51.4 °F /  10.8 °C 29.5in /  997.3hPa WNW 2mph /  3.2km/h 6mph /  9.7km/h 95% 0.08in /  2.0mm 28 W/m2
11:05 52.9 °F /  11.6 °C 51.4 °F /  10.8 °C 29.5in /  997.3hPa WSW 2mph /  3.2km/h 3mph /  4.8km/h 95% 0.09in /  2.3mm 25 W/m2
11:10 53.1 °F /  11.7 °C 51.6 °F /  10.9 °C 29.5in /  997.3hPa WNW 6.9mph /  11.1km/h 11mph /  17.7km/h 95% 0.09in /  2.3mm 33 W/m2
11:15 53.1 °F /  11.7 °C 51.6 °F /  10.9 °C 29.4in /  996.3hPa SSE 4mph /  6.4km/h 4mph /  6.4km/h 95% 0.09in /  2.3mm 33 W/m2
11:20 53.1 °F /  11.7 °C 51.4 °F /  10.8 °C 29.4in /  997.0hPa West 6.9mph /  11.1km/h 11mph /  17.7km/h 94% 0.09in /  2.3mm 44 W/m2
11:25 53.2 °F /  11.8 °C 51.6 °F /  10.9 °C 29.4in /  997.0hPa NNE 4mph /  6.4km/h 4mph /  6.4km/h 94% 0.09in /  2.3mm 42 W/m2
11:30 53.2 °F /  11.8 °C 51.6 °F /  10.9 °C 29.5in /  997.6hPa WNW 2mph /  3.2km/h 7mph /  11.3km/h 94% 0.07in /  1.8mm 19 W/m2
11:35 53.2 °F /  11.8 °C 51.6 °F /  10.9 °C 29.5in /  997.3hPa West 2.9mph /  4.7km/h 6mph /  9.7km/h 94% 0.07in /  1.8mm 35 W/m2
11:40 53.2 °F /  11.8 °C 51.3 °F /  10.7 °C 29.4in /  997.0hPa WNW 8.9mph /  14.3km/h 9mph /  14.5km/h 93% 0.06in /  1.5mm 28 W/m2
11:45 53.2 °F /  11.8 °C 51.3 °F /  10.7 °C 29.5in /  997.3hPa WNW 4.9mph /  7.9km/h 8mph /  12.9km/h 93% 0.06in /  1.5mm 39 W/m2
11:50 53.2 °F /  11.8 °C 51.3 °F /  10.7 °C 29.5in /  997.3hPa WNW 4mph /  6.4km/h 11mph /  17.7km/h 93% 0.05in /  1.3mm 32 W/m2
11:55 53.4 °F /  11.9 °C 51.4 °F /  10.8 °C 29.5in /  997.3hPa Calm   2mph /  3.2km/h 93% 0.03in /  0.8mm 47 W/m2
12:00 53.4 °F /  11.9 °C 51.1 °F /  10.6 °C 29.5in /  997.6hPa NW 4mph /  6.4km/h 11mph /  17.7km/h 92% 0.02in /  0.5mm 40 W/m2
12:05 53.4 °F /  11.9 °C 51.1 °F /  10.6 °C 29.5in /  997.6hPa South 4.9mph /  7.9km/h 10mph /  16.1km/h 92% 0.01in /  0.2mm 39 W/m2
12:10 53.4 °F /  11.9 °C 50.9 °F /  10.5 °C 29.5in /  997.6hPa WNW 4.9mph /  7.9km/h 11mph /  17.7km/h 91% 0.01in /  0.2mm 46 W/m2
12:15 53.4 °F /  11.9 °C 50.5 °F /  10.3 °C 29.5in /  997.6hPa SW 4.9mph /  7.9km/h 9mph /  14.5km/h 90% 0in /  0.0mm 39 W/m2
12:20 53.6 °F /  12 °C 50.7 °F /  10.4 °C 29.5in /  997.6hPa WNW 2.9mph /  4.7km/h 9mph /  14.5km/h 90% 0in /  0.0mm 35 W/m2
12:25 53.4 °F /  11.9 °C 50.2 °F /  10.1 °C 29.5in /  997.3hPa West 0.9mph /  1.4km/h 9mph /  14.5km/h 89% 0in /  0.0mm 37 W/m2
12:30 53.4 °F /  11.9 °C 50.2 °F /  10.1 °C 29.5in /  997.3hPa WSW 0.9mph /  1.4km/h 7mph /  11.3km/h 89% 0in /  0.0mm 35 W/m2
12:35 53.4 °F /  11.9 °C 50.2 °F /  10.1 °C 29.5in /  997.3hPa WNW 2.9mph /  4.7km/h 9mph /  14.5km/h 89% 0in /  0.0mm 54 W/m2
12:40 53.4 °F /  11.9 °C 50.2 °F /  10.1 °C 29.4in /  997.0hPa West 2.9mph /  4.7km/h 8mph /  12.9km/h 89% 0in /  0.0mm 58 W/m2
12:45 53.4 °F /  11.9 °C 50.2 °F /  10.1 °C 29.5in /  997.6hPa East 2mph /  3.2km/h 5mph /  8km/h 89% 0in /  0.0mm 40 W/m2
12:50 53.2 °F /  11.8 °C 50 °F /  10 °C 29.5in /  997.6hPa SSW 0.9mph /  1.4km/h 6mph /  9.7km/h 89% 0in /  0.0mm 70 W/m2
12:55 53.4 °F /  11.9 °C 50 °F /  10 °C 29.5in /  997.6hPa West 8.9mph /  14.3km/h 13mph /  20.9km/h 88% 0in /  0.0mm 67 W/m2
13:00 53.4 °F /  11.9 °C 49.6 °F /  9.8 °C 29.5in /  997.6hPa North 2.9mph /  4.7km/h 5mph /  8km/h 87% 0in /  0.0mm 95 W/m2
13:05 53.6 °F /  12 °C 49.8 °F /  9.9 °C 29.5in /  997.3hPa WNW 2mph /  3.2km/h 7mph /  11.3km/h 87% 0in /  0.0mm 69 W/m2
13:10 53.4 °F /  11.9 °C 49.6 °F /  9.8 °C 29.5in /  997.3hPa NW 4.9mph /  7.9km/h 6mph /  9.7km/h 87% 0in /  0.0mm 28 W/m2
13:15 53.4 °F /  11.9 °C 49.6 °F /  9.8 °C 29.4in /  997.0hPa West 2mph /  3.2km/h 3mph /  4.8km/h 87% 0in /  0.0mm 88 W/m2
13:20 53.4 °F /  11.9 °C 49.6 °F /  9.8 °C 29.5in /  997.3hPa WNW 4mph /  6.4km/h 9mph /  14.5km/h 87% 0in /  0.0mm 74 W/m2
13:25 53.2 °F /  11.8 °C 49.5 °F /  9.7 °C 29.5in /  997.3hPa ESE 2mph /  3.2km/h 4mph /  6.4km/h 87% 0in /  0.0mm 83 W/m2
13:30 53.2 °F /  11.8 °C 49.8 °F /  9.9 °C 29.5in /  997.3hPa SW 0.9mph /  1.4km/h 9mph /  14.5km/h 88% 0in /  0.0mm 142 W/m2
13:35 53.4 °F /  11.9 °C 50 °F /  10 °C 29.5in /  997.6hPa NNW 6mph /  9.7km/h 8mph /  12.9km/h 88% 0in /  0.0mm 141 W/m2
13:40 53.4 °F /  11.9 °C 50 °F /  10 °C 29.5in /  997.6hPa SE 0.9mph /  1.4km/h 3mph /  4.8km/h 88% 0in /  0.0mm 79 W/m2
13:45 53.4 °F /  11.9 °C 50 °F /  10 °C 29.5in /  997.6hPa West 8.1mph /  13km/h 9mph /  14.5km/h 88% 0in /  0.0mm 144 W/m2
13:50 53.6 °F /  12 °C 49.8 °F /  9.9 °C 29.5in /  997.6hPa WNW 6.9mph /  11.1km/h 12mph /  19.3km/h 87% 0in /  0.0mm 162 W/m2
13:55 53.8 °F /  12.1 °C 49.6 °F /  9.8 °C 29.5in /  997.6hPa NW 6mph /  9.7km/h 7mph /  11.3km/h 86% 0in /  0.0mm 51 W/m2
14:00 53.8 °F /  12.1 °C 49.6 °F /  9.8 °C 29.5in /  998.0hPa NW 6.9mph /  11.1km/h 12mph /  19.3km/h 86% 0in /  0.0mm 67 W/m2
14:05 54 °F /  12.2 °C 49.8 °F /  9.9 °C 29.5in /  998.0hPa WSW 4mph /  6.4km/h 5mph /  8km/h 86% 0in /  0.0mm 69 W/m2
14:10 54 °F /  12.2 °C 49.8 °F /  9.9 °C 29.5in /  997.6hPa WNW 11mph /  17.7km/h 11mph /  17.7km/h 86% 0in /  0.0mm 40 W/m2
14:15 54 °F /  12.2 °C 49.8 °F /  9.9 °C 29.5in /  998.0hPa East 2mph /  3.2km/h 10mph /  16.1km/h 86% 0in /  0.0mm 72 W/m2
14:20 54 °F /  12.2 °C 49.8 °F /  9.9 °C 29.5in /  998.0hPa WNW 2mph /  3.2km/h 3mph /  4.8km/h 86% 0in /  0.0mm 141 W/m2
14:25 54 °F /  12.2 °C 49.6 °F /  9.8 °C 29.5in /  997.6hPa North 4mph /  6.4km/h 10mph /  16.1km/h 85% 0in /  0.0mm 30 W/m2
14:30 54 °F /  12.2 °C 49.6 °F /  9.8 °C 29.5in /  997.6hPa NNW 4.9mph /  7.9km/h 5mph /  8km/h 85% 0in /  0.0mm 21 W/m2
14:35 54 °F /  12.2 °C 49.6 °F /  9.8 °C 29.5in /  997.6hPa ESE 10.1mph /  16.3km/h 11mph /  17.7km/h 85% 0in /  0.0mm 178 W/m2
14:40 54 °F /  12.2 °C 49.6 °F /  9.8 °C 29.5in /  997.6hPa NNW 2.9mph /  4.7km/h 7mph /  11.3km/h 85% 0in /  0.0mm 193 W/m2
14:45 54.1 °F /  12.3 °C 49.8 °F /  9.9 °C 29.5in /  997.6hPa West 6mph /  9.7km/h 12mph /  19.3km/h 85% 0in /  0.0mm 105 W/m2
14:50 54.1 °F /  12.3 °C 49.8 °F /  9.9 °C 29.5in /  997.6hPa WSW 4.9mph /  7.9km/h 8mph /  12.9km/h 85% 0in /  0.0mm 113 W/m2
14:55 54.1 °F /  12.3 °C 49.8 °F /  9.9 °C 29.5in /  997.6hPa West 2.9mph /  4.7km/h 12mph /  19.3km/h 85% 0in /  0.0mm 49 W/m2
15:00 54 °F /  12.2 °C 49.6 °F /  9.8 °C 29.5in /  997.6hPa ESE 4mph /  6.4km/h 6mph /  9.7km/h 85% 0in /  0.0mm 98 W/m2
15:05 54 °F /  12.2 °C 49.3 °F /  9.6 °C 29.5in /  997.6hPa NW 4.9mph /  7.9km/h 12mph /  19.3km/h 84% 0in /  0.0mm 134 W/m2
15:10 54.1 °F /  12.3 °C 49.1 °F /  9.5 °C 29.5in /  997.6hPa SE 8.1mph /  13km/h 10mph /  16.1km/h 83% 0in /  0.0mm 142 W/m2
15:15 54.3 °F /  12.4 °C 48.9 °F /  9.4 °C 29.5in /  997.6hPa SW 0.9mph /  1.4km/h 8mph /  12.9km/h 82% 0in /  0.0mm 86 W/m2
15:20 54.5 °F /  12.5 °C 48.7 °F /  9.3 °C 29.5in /  997.3hPa West 6.9mph /  11.1km/h 10mph /  16.1km/h 81% 0in /  0.0mm 60 W/m2
15:25 54.7 °F /  12.6 °C 48.6 °F /  9.2 °C 29.5in /  997.3hPa SSW 2mph /  3.2km/h 16mph /  25.7km/h 80% 0in /  0.0mm 56 W/m2
15:30 54.7 °F /  12.6 °C 48.4 °F /  9.1 °C 29.5in /  997.6hPa West 6.9mph /  11.1km/h 12mph /  19.3km/h 79% 0in /  0.0mm 37 W/m2
15:36 54.5 °F /  12.5 °C 48.2 °F /  9 °C 29.5in /  997.3hPa West 6mph /  9.7km/h 8mph /  12.9km/h 79% 0in /  0.0mm 60 W/m2
15:41 54.3 °F /  12.4 °C 47.7 °F /  8.7 °C 29.5in /  997.3hPa NNW 6mph /  9.7km/h 9mph /  14.5km/h 78% 0in /  0.0mm 86 W/m2
15:46 54.3 °F /  12.4 °C 48 °F /  8.9 °C 29.5in /  997.3hPa NNE 2mph /  3.2km/h 8mph /  12.9km/h 79% 0in /  0.0mm 60 W/m2
15:51 54.3 °F /  12.4 °C 47.7 °F /  8.7 °C 29.5in /  997.3hPa WNW 4mph /  6.4km/h 9mph /  14.5km/h 78% 0in /  0.0mm 77 W/m2
15:56 54.3 °F /  12.4 °C 47.7 °F /  8.7 °C 29.4in /  997.0hPa WSW 2mph /  3.2km/h 2mph /  3.2km/h 78% 0in /  0.0mm 91 W/m2
16:01 54.3 °F /  12.4 °C 47.7 °F /  8.7 °C 29.4in /  997.0hPa North 0.9mph /  1.4km/h 8mph /  12.9km/h 78% 0in /  0.0mm 40 W/m2
16:06 54.3 °F /  12.4 °C 47.7 °F /  8.7 °C 29.4in /  997.0hPa SW 2mph /  3.2km/h 7mph /  11.3km/h 78% 0in /  0.0mm 58 W/m2
16:11 54.3 °F /  12.4 °C 47.7 °F /  8.7 °C 29.4in /  997.0hPa SW 2.9mph /  4.7km/h 7mph /  11.3km/h 78% 0in /  0.0mm 47 W/m2
16:16 54.3 °F /  12.4 °C 47.7 °F /  8.7 °C 29.4in /  997.0hPa NW 2mph /  3.2km/h 4mph /  6.4km/h 78% 0in /  0.0mm 67 W/m2
16:21 54.3 °F /  12.4 °C 47.7 °F /  8.7 °C 29.4in /  997.0hPa East 2.9mph /  4.7km/h 18mph /  29km/h 78% 0in /  0.0mm 18 W/m2
16:26 54.1 °F /  12.3 °C 47.8 °F /  8.8 °C 29.5in /  997.3hPa North 2mph /  3.2km/h 4mph /  6.4km/h 79% 0in /  0.0mm 9 W/m2
16:31 54.1 °F /  12.3 °C 48 °F /  8.9 °C 29.5in /  997.3hPa West 2.9mph /  4.7km/h 18mph /  29km/h 80% 0in /  0.0mm 9 W/m2
16:36 53.6 °F /  12 °C 48.2 °F /  9 °C 29.4in /  997.0hPa East 4mph /  6.4km/h 10mph /  16.1km/h 82% 0.01in /  0.2mm 19 W/m2
16:41 52.9 °F /  11.6 °C 48.2 °F /  9 °C 29.4in /  997.0hPa NNW 2.9mph /  4.7km/h 20mph /  32.2km/h 84% 0.03in /  0.8mm 12 W/m2
16:46 52.3 °F /  11.3 °C 48.2 °F /  9 °C 29.4in /  997.0hPa WNW 6.9mph /  11.1km/h 10mph /  16.1km/h 86% 0.05in /  1.3mm 7 W/m2
16:51 52 °F /  11.1 °C 48.2 °F /  9 °C 29.4in /  997.0hPa West 8.1mph /  13km/h 20mph /  32.2km/h 87% 0.06in /  1.5mm 5 W/m2
16:56 51.4 °F /  10.8 °C 48 °F /  8.9 °C 29.4in /  997.0hPa NNW 0.9mph /  1.4km/h 5mph /  8km/h 88% 0.06in /  1.5mm 0 W/m2
17:01 51.3 °F /  10.7 °C 48.4 °F /  9.1 °C 29.5in /  997.3hPa WNW 4mph /  6.4km/h 10mph /  16.1km/h 90% 0.07in /  1.8mm 0 W/m2
17:06 51.3 °F /  10.7 °C 48.7 °F /  9.3 °C 29.5in /  997.3hPa SW 0.9mph /  1.4km/h 6mph /  9.7km/h 91% 0.07in /  1.8mm 7 W/m2
17:11 51.1 °F /  10.6 °C 48.6 °F /  9.2 °C 29.5in /  997.3hPa NW 2mph /  3.2km/h 6mph /  9.7km/h 91% 0.08in /  2.0mm 0 W/m2
17:16 51.1 °F /  10.6 °C 48.6 °F /  9.2 °C 29.5in /  997.3hPa West 2.9mph /  4.7km/h 16mph /  25.7km/h 91% 0.08in /  2.0mm 0 W/m2
17:21 51.1 °F /  10.6 °C 48.6 °F /  9.2 °C 29.5in /  997.3hPa WSW 2.9mph /  4.7km/h 7mph /  11.3km/h 91% 0.09in /  2.3mm 0 W/m2
17:26 51.1 °F /  10.6 °C 48.6 °F /  9.2 °C 29.5in /  997.3hPa WNW 4.9mph /  7.9km/h 16mph /  25.7km/h 91% 0.1in /  2.5mm 0 W/m2
17:31 51.3 °F /  10.7 °C 48.7 °F /  9.3 °C 29.5in /  997.3hPa WNW 2mph /  3.2km/h 7mph /  11.3km/h 91% 0.11in /  2.8mm 0 W/m2
17:36 51.3 °F /  10.7 °C 48.7 °F /  9.3 °C 29.5in /  997.3hPa NW 2mph /  3.2km/h 11mph /  17.7km/h 91% 0.09in /  2.3mm 0 W/m2
17:41 51.3 °F /  10.7 °C 48.7 °F /  9.3 °C 29.5in /  997.3hPa East 2mph /  3.2km/h 6mph /  9.7km/h 91% 0.09in /  2.3mm 0 W/m2
17:46 51.3 °F /  10.7 °C 48.7 °F /  9.3 °C 29.5in /  997.3hPa West 0.9mph /  1.4km/h 11mph /  17.7km/h 91% 0.08in /  2.0mm 0 W/m2
17:51 51.3 °F /  10.7 °C 48.4 °F /  9.1 °C 29.5in /  997.3hPa NNW 2mph /  3.2km/h 5mph /  8km/h 90% 0.07in /  1.8mm 0 W/m2
17:56 51.4 °F /  10.8 °C 48.6 °F /  9.2 °C 29.5in /  997.6hPa West 15mph /  24.1km/h 17mph /  27.4km/h 90% 0.06in /  1.5mm 0 W/m2
18:01 51.8 °F /  11 °C 48.4 °F /  9.1 °C 29.5in /  997.6hPa WNW 2mph /  3.2km/h 12mph /  19.3km/h 88% 0.06in /  1.5mm 0 W/m2
18:06 51.8 °F /  11 °C 48.4 °F /  9.1 °C 29.5in /  998.0hPa WNW 2mph /  3.2km/h 17mph /  27.4km/h 88% 0.06in /  1.5mm 0 W/m2
18:11 52 °F /  11.1 °C 48.2 °F /  9 °C 29.5in /  998.0hPa North 6mph /  9.7km/h 6mph /  9.7km/h 87% 0.06in /  1.5mm 0 W/m2
18:16 51.6 °F /  10.9 °C 48.2 °F /  9 °C 29.5in /  998.3hPa SW 2mph /  3.2km/h 12mph /  19.3km/h 88% 0.06in /  1.5mm 0 W/m2
18:21 51.4 °F /  10.8 °C 48.4 °F /  9.1 °C 29.5in /  998.0hPa NW 8.9mph /  14.3km/h 9mph /  14.5km/h 89% 0.05in /  1.3mm 0 W/m2
18:26 51.4 °F /  10.8 °C 48.4 °F /  9.1 °C 29.5in /  998.3hPa WNW 0.9mph /  1.4km/h 12mph /  19.3km/h 89% 0.03in /  0.8mm 0 W/m2
18:31 51.3 °F /  10.7 °C 48.2 °F /  9 °C 29.5in /  998.3hPa East 2mph /  3.2km/h 10mph /  16.1km/h 89% 0.02in /  0.5mm 0 W/m2
18:36 51.4 °F /  10.8 °C 48.4 °F /  9.1 °C 29.5in /  998.6hPa WSW 2.9mph /  4.7km/h 13mph /  20.9km/h 89% 0.03in /  0.8mm 0 W/m2
18:41 51.4 °F /  10.8 °C 48.4 °F /  9.1 °C 29.5in /  998.3hPa West 12.1mph /  19.5km/h 13mph /  20.9km/h 89% 0.02in /  0.5mm 0 W/m2
18:46 51.4 °F /  10.8 °C 48.4 °F /  9.1 °C 29.5in /  998.6hPa NNW 2.9mph /  4.7km/h 13mph /  20.9km/h 89% 0.02in /  0.5mm 0 W/m2
18:51 51.3 °F /  10.7 °C 48.2 °F /  9 °C 29.5in /  999.0hPa SW 11mph /  17.7km/h 12mph /  19.3km/h 89% 0.04in /  1.0mm 0 W/m2
18:56 50.9 °F /  10.5 °C 48 °F /  8.9 °C 29.5in /  999.3hPa SW 13mph /  20.9km/h 13mph /  20.9km/h 90% 0.08in /  2.0mm 0 W/m2
19:01 50.5 °F /  10.3 °C 48 °F /  8.9 °C 29.5in /  999.7hPa WSW 10.1mph /  16.3km/h 19mph /  30.6km/h 91% 0.11in /  2.8mm 0 W/m2
19:06 50.2 °F /  10.1 °C 47.7 °F /  8.7 °C 29.5in /  999.7hPa NNE 12.1mph /  19.5km/h 18mph /  29km/h 91% 0.13in /  3.3mm 0 W/m2
19:11 49.8 °F /  9.9 °C 46.9 °F /  8.3 °C 29.5in /  999.7hPa WSW 6.9mph /  11.1km/h 12mph /  19.3km/h 90% 0.13in /  3.3mm 0 W/m2
19:16 49.6 °F /  9.8 °C 46.8 °F /  8.2 °C 29.5in /  999.7hPa West 6.9mph /  11.1km/h 13mph /  20.9km/h 90% 0.13in /  3.3mm 0 W/m2
19:21 49.6 °F /  9.8 °C 46.8 °F /  8.2 °C 29.5in /  1000.0hPa NNW 8.9mph /  14.3km/h 15mph /  24.1km/h 90% 0.13in /  3.3mm 0 W/m2
19:26 49.5 °F /  9.7 °C 46.6 °F /  8.1 °C 29.5in /  1000.0hPa NW 16.1mph /  25.9km/h 19mph /  30.6km/h 90% 0.13in /  3.3mm 0 W/m2
19:31 49.5 °F /  9.7 °C 46.6 °F /  8.1 °C 29.5in /  1000.3hPa NW 4mph /  6.4km/h 13mph /  20.9km/h 90% 0.13in /  3.3mm 0 W/m2
19:36 49.3 °F /  9.6 °C 46.2 °F /  7.9 °C 29.5in /  1000.3hPa WNW 8.1mph /  13km/h 15mph /  24.1km/h 89% 0.12in /  3.0mm 0 W/m2
19:41 49.1 °F /  9.5 °C 45.7 °F /  7.6 °C 29.5in /  1000.3hPa West 8.1mph /  13km/h 14mph /  22.5km/h 88% 0.12in /  3.0mm 0 W/m2
19:46 48.9 °F /  9.4 °C 45.5 °F /  7.5 °C 29.5in /  1000.3hPa West 6.9mph /  11.1km/h 12mph /  19.3km/h 88% 0.12in /  3.0mm 0 W/m2
19:51 48.9 °F /  9.4 °C 45.5 °F /  7.5 °C 29.6in /  1000.7hPa WNW 4mph /  6.4km/h 15mph /  24.1km/h 88% 0.09in /  2.3mm 0 W/m2
19:56 48.9 °F /  9.4 °C 45.5 °F /  7.5 °C 29.6in /  1000.7hPa West 6.9mph /  11.1km/h 13mph /  20.9km/h 88% 0.05in /  1.3mm 0 W/m2
20:02 48.9 °F /  9.4 °C 45.5 °F /  7.5 °C 29.6in /  1001.0hPa West 14.1mph /  22.7km/h 17mph /  27.4km/h 88% 0.02in /  0.5mm 0 W/m2
20:07 48.9 °F /  9.4 °C 45.1 °F /  7.3 °C 29.6in /  1001.0hPa West 6.9mph /  11.1km/h 14mph /  22.5km/h 87% 0.01in /  0.2mm 0 W/m2
20:12 48.7 °F /  9.3 °C 44.8 °F /  7.1 °C 29.6in /  1001.0hPa WSW 8.1mph /  13km/h 17mph /  27.4km/h 86% 0in /  0.0mm 0 W/m2
20:17 48.7 °F /  9.3 °C 44.8 °F /  7.1 °C 29.6in /  1001.4hPa WNW 8.1mph /  13km/h 16mph /  25.7km/h 86% 0in /  0.0mm 0 W/m2
20:22 48.6 °F /  9.2 °C 44.6 °F /  7 °C 29.6in /  1001.4hPa WNW 6.9mph /  11.1km/h 16mph /  25.7km/h 86% 0in /  0.0mm 0 W/m2
20:27 48.6 °F /  9.2 °C 44.6 °F /  7 °C 29.6in /  1001.4hPa WSW 2.9mph /  4.7km/h 20mph /  32.2km/h 86% 0in /  0.0mm 0 W/m2
20:32 48.4 °F /  9.1 °C 44.4 °F /  6.9 °C 29.6in /  1001.7hPa NW 13mph /  20.9km/h 13mph /  20.9km/h 86% 0in /  0.0mm 0 W/m2
20:37 48 °F /  8.9 °C 44.1 °F /  6.7 °C 29.6in /  1002.0hPa NW 17mph /  27.4km/h 20mph /  32.2km/h 86% 0in /  0.0mm 0 W/m2
20:42 48 °F /  8.9 °C 44.1 °F /  6.7 °C 29.6in /  1002.0hPa WNW 8.1mph /  13km/h 21mph /  33.8km/h 86% 0in /  0.0mm 0 W/m2
20:47 48 °F /  8.9 °C 44.1 °F /  6.7 °C 29.6in /  1002.0hPa WNW 14.1mph /  22.7km/h 15mph /  24.1km/h 86% 0in /  0.0mm 0 W/m2
20:52 48 °F /  8.9 °C 44.1 °F /  6.7 °C 29.6in /  1002.4hPa NW 12.1mph /  19.5km/h 20mph /  32.2km/h 86% 0in /  0.0mm 0 W/m2
20:57 47.8 °F /  8.8 °C 43.9 °F /  6.6 °C 29.6in /  1002.4hPa NW 12.1mph /  19.5km/h 26mph /  41.8km/h 86% 0in /  0.0mm 0 W/m2
21:02 47.8 °F /  8.8 °C 43.9 °F /  6.6 °C 29.6in /  1003.0hPa WSW 12.1mph /  19.5km/h 19mph /  30.6km/h 86% 0in /  0.0mm 0 W/m2
21:07 47.7 °F /  8.7 °C 43.7 °F /  6.5 °C 29.6in /  1003.0hPa SW 15mph /  24.1km/h 26mph /  41.8km/h 86% 0in /  0.0mm 0 W/m2
21:12 47.7 °F /  8.7 °C 43.3 °F /  6.3 °C 29.6in /  1003.4hPa WSW 16.1mph /  25.9km/h 28mph /  45.1km/h 85% 0in /  0.0mm 0 W/m2
21:17 47.7 °F /  8.7 °C 43.7 °F /  6.5 °C 29.6in /  1003.4hPa WNW 16.1mph /  25.9km/h 19mph /  30.6km/h 86% 0in /  0.0mm 0 W/m2
21:22 47.5 °F /  8.6 °C 43.5 °F /  6.4 °C 29.6in /  1003.4hPa WNW 15mph /  24.1km/h 28mph /  45.1km/h 86% 0in /  0.0mm 0 W/m2
21:27 47.3 °F /  8.5 °C 43.7 °F /  6.5 °C 29.6in /  1003.7hPa West 15mph /  24.1km/h 22mph /  35.4km/h 87% 0in /  0.0mm 0 W/m2
21:32 47.1 °F /  8.4 °C 43.5 °F /  6.4 °C 29.7in /  1004.1hPa West 4mph /  6.4km/h 13mph /  20.9km/h 87% 0in /  0.0mm 0 W/m2
21:37 47.1 °F /  8.4 °C 43.2 °F /  6.2 °C 29.7in /  1004.1hPa SW 11mph /  17.7km/h 22mph /  35.4km/h 86% 0in /  0.0mm 0 W/m2
21:42 47.1 °F /  8.4 °C 43.2 °F /  6.2 °C 29.7in /  1004.4hPa WNW 6.9mph /  11.1km/h 11mph /  17.7km/h 86% 0in /  0.0mm 0 W/m2
21:47 47.1 °F /  8.4 °C 43.2 °F /  6.2 °C 29.7in /  1004.4hPa West 8.1mph /  13km/h 16mph /  25.7km/h 86% 0in /  0.0mm 0 W/m2
21:52 47.1 °F /  8.4 °C 43.2 °F /  6.2 °C 29.7in /  1004.7hPa WNW 6.9mph /  11.1km/h 17mph /  27.4km/h 86% 0in /  0.0mm 0 W/m2
21:57 47.1 °F /  8.4 °C 43.2 °F /  6.2 °C 29.7in /  1004.7hPa WNW 8.9mph /  14.3km/h 17mph /  27.4km/h 86% 0in /  0.0mm 0 W/m2
22:02 47.1 °F /  8.4 °C 42.6 °F /  5.9 °C 29.7in /  1005.1hPa WNW 13mph /  20.9km/h 23mph /  37km/h 84% 0in /  0.0mm 0 W/m2
22:07 47.1 °F /  8.4 °C 42.8 °F /  6 °C 29.7in /  1005.4hPa West 6mph /  9.7km/h 13mph /  20.9km/h 85% 0in /  0.0mm 0 W/m2
22:12 47.1 °F /  8.4 °C 42.8 °F /  6 °C 29.7in /  1005.8hPa NW 8.9mph /  14.3km/h 13mph /  20.9km/h 85% 0in /  0.0mm 0 W/m2
22:17 47.1 °F /  8.4 °C 42.8 °F /  6 °C 29.7in /  1005.8hPa WNW 8.1mph /  13km/h 15mph /  24.1km/h 85% 0in /  0.0mm 0 W/m2
22:22 47.1 °F /  8.4 °C 42.8 °F /  6 °C 29.7in /  1005.8hPa West 8.9mph /  14.3km/h 13mph /  20.9km/h 85% 0in /  0.0mm 0 W/m2
22:27 47.3 °F /  8.5 °C 42.8 °F /  6 °C 29.7in /  1006.1hPa West 13mph /  20.9km/h 13mph /  20.9km/h 84% 0in /  0.0mm 0 W/m2
22:32 47.1 °F /  8.4 °C 42.6 °F /  5.9 °C 29.7in /  1006.1hPa WSW 6mph /  9.7km/h 12mph /  19.3km/h 84% 0in /  0.0mm 0 W/m2
22:37 47.1 °F /  8.4 °C 42.8 °F /  6 °C 29.7in /  1006.4hPa WNW 8.1mph /  13km/h 11mph /  17.7km/h 85% 0in /  0.0mm 0 W/m2
22:42 47.1 °F /  8.4 °C 42.8 °F /  6 °C 29.7in /  1006.4hPa WNW 6.9mph /  11.1km/h 17mph /  27.4km/h 85% 0in /  0.0mm 0 W/m2
22:47 47.1 °F /  8.4 °C 42.8 °F /  6 °C 29.7in /  1006.8hPa West 6mph /  9.7km/h 10mph /  16.1km/h 85% 0in /  0.0mm 0 W/m2
22:52 46.9 °F /  8.3 °C 43 °F /  6.1 °C 29.7in /  1006.8hPa NNE 2.9mph /  4.7km/h 17mph /  27.4km/h 86% 0in /  0.0mm 0 W/m2
22:57 46.9 °F /  8.3 °C 43.3 °F /  6.3 °C 29.7in /  1006.8hPa WNW 6mph /  9.7km/h 15mph /  24.1km/h 87% 0in /  0.0mm 0 W/m2
23:02 46.8 °F /  8.2 °C 43.2 °F /  6.2 °C 29.7in /  1007.1hPa WSW 8.9mph /  14.3km/h 13mph /  20.9km/h 87% 0in /  0.0mm 0 W/m2
23:07 46.8 °F /  8.2 °C 43.2 °F /  6.2 °C 29.7in /  1007.1hPa SW 8.9mph /  14.3km/h 15mph /  24.1km/h 87% 0in /  0.0mm 0 W/m2
23:12 46.8 °F /  8.2 °C 43.2 °F /  6.2 °C 29.7in /  1007.1hPa SSW 4mph /  6.4km/h 7mph /  11.3km/h 87% 0in /  0.0mm 0 W/m2
23:17 46.8 °F /  8.2 °C 43.2 °F /  6.2 °C 29.7in /  1007.1hPa NW 4mph /  6.4km/h 6mph /  9.7km/h 87% 0in /  0.0mm 0 W/m2
23:22 46.8 °F /  8.2 °C 43.2 °F /  6.2 °C 29.8in /  1007.5hPa WNW 8.9mph /  14.3km/h 12mph /  19.3km/h 87% 0in /  0.0mm 0 W/m2
23:27 46.8 °F /  8.2 °C 42.8 °F /  6 °C 29.8in /  1007.5hPa SSW 2.9mph /  4.7km/h 9mph /  14.5km/h 86% 0in /  0.0mm 0 W/m2
23:32 46.8 °F /  8.2 °C 42.8 °F /  6 °C 29.8in /  1007.8hPa West 4mph /  6.4km/h 9mph /  14.5km/h 86% 0in /  0.0mm 0 W/m2
23:37 46.8 °F /  8.2 °C 42.8 °F /  6 °C 29.8in /  1008.1hPa West 10.1mph /  16.3km/h 10mph /  16.1km/h 86% 0in /  0.0mm 0 W/m2
23:42 46.8 °F /  8.2 °C 42.8 °F /  6 °C 29.8in /  1008.1hPa WNW 2.9mph /  4.7km/h 11mph /  17.7km/h 86% 0in /  0.0mm 0 W/m2
23:47 46.6 °F /  8.1 °C 42.3 °F /  5.7 °C 29.8in /  1008.1hPa West 8.9mph /  14.3km/h 10mph /  16.1km/h 85% 0in /  0.0mm 0 W/m2
23:52 46.6 °F /  8.1 °C 42.3 °F /  5.7 °C 29.8in /  1008.1hPa SSW 4mph /  6.4km/h 9mph /  14.5km/h 85% 0in /  0.0mm 0 W/m2
23:57 46.6 °F /  8.1 °C 42.3 °F /  5.7 °C 29.8in /  1008.1hPa WSW 4mph /  6.4km/h 10mph /  16.1km/h 85% 0in /  0.0mm 0 W/m2
Juneau County Weather
Compliments of Weather Underground - 2 mb